Boca Raton, FL

2:28 AM EDT on August 27, 2016 (GMT -0400)
Boca (C6162) | | Change Station

Elev 12 ft 26.34 °N, 80.21 °W | Updated 12 seconds ago

Rain
Rain
78.8 °F
Feels Like 82 °F
N
0.0
Wind Variable Wind from North
Gusts 0.0 mph

Today
High -- | Low -- °F
--% Chance of Precip.
Yesterday
High -- | Low -- °F
Precip. -- in
Pressure 29.92 in
Visibility 10.0 miles
Clouds Clear
Heat Index 82 °F
Dew Point 74 °F
Humidity 86%
Rainfall 0.29 in
Snow Depth Not available.
6:58 AM 7:45 PM
Waning Crescent, 27% visible
METAR KFXE 270553Z 05004KT 10SM CLR 27/24 A2991 RMK AO2 SLP132 60000 T02720239 10294 20267 58017
Pressure 29.92 in
Visibility 10.0 miles
Clouds Clear
Heat Index 82 °F
Dew Point 74 °F
Humidity 86%
Rainfall 0.29 in
Snow Depth Not available.
6:58 AM 7:45 PM
Waning Crescent, 27% visible
METAR KFXE 270553Z 05004KT 10SM CLR 27/24 A2991 RMK AO2 SLP132 60000 T02720239 10294 20267 58017

10-Day Weather Forecast

Almanac

Astronomy

Aug. 27, 2016 Rise Set
Actual Time
Civil Twilight
Nautical Twilight
Astronomical Twilight
Moon
Length of Visible Light
Length of Day
Tomorrow will be .
, % of the Moon is Illuminated

Today's Extremes

State Highs State Lows

Community

WunderPhotos

Upload Photos

1,935,303 photos uploaded!

WunderBlog® & News

Nearby

Air Quality

  Air Quality AQ Index Pollutant
Not available.

Snow Depth

Station Depth Elevation

Earthquake Activity

City Distance Mag. Time & Date
Minimum magnitude displayed is 2.5.

Coastal Water Temperatures

Place Temperature

Stations

Nearby Weather Stations

Station Location Temp. Windchill Dew Point Humidity Wind Precip. Elev Updated Type
                   

Watches & Warnings

There are currently no watches in effect.